sensor_id;sensor_type;location;lat;lon;timestamp;P1;durP1;ratioP1;P2;durP2;ratioP2
71174;SDS011;58876;51.994;4.472;2023-01-26T00:01:37;47.83;;;43.00;;
71174;SDS011;58876;51.994;4.472;2023-01-26T00:04:02;47.73;;;43.13;;
71174;SDS011;58876;51.994;4.472;2023-01-26T00:06:28;46.90;;;42.47;;
71174;SDS011;58876;51.994;4.472;2023-01-26T00:08:53;48.48;;;44.82;;
71174;SDS011;58876;51.994;4.472;2023-01-26T00:11:22;46.04;;;41.75;;
71174;SDS011;58876;51.994;4.472;2023-01-26T00:13:54;46.42;;;41.88;;
71174;SDS011;58876;51.994;4.472;2023-01-26T00:16:21;45.36;;;41.36;;
71174;SDS011;58876;51.994;4.472;2023-01-26T00:18:46;45.86;;;41.77;;
71174;SDS011;58876;51.994;4.472;2023-01-26T00:21:13;45.82;;;41.64;;
71174;SDS011;58876;51.994;4.472;2023-01-26T00:23:41;42.97;;;39.69;;
71174;SDS011;58876;51.994;4.472;2023-01-26T00:26:08;42.88;;;39.70;;
71174;SDS011;58876;51.994;4.472;2023-01-26T00:28:37;43.21;;;39.54;;
71174;SDS011;58876;51.994;4.472;2023-01-26T00:31:03;43.14;;;39.95;;
71174;SDS011;58876;51.994;4.472;2023-01-26T00:33:32;41.47;;;38.72;;
71174;SDS011;58876;51.994;4.472;2023-01-26T00:35:58;43.04;;;40.23;;
71174;SDS011;58876;51.994;4.472;2023-01-26T00:38:24;42.24;;;39.71;;
71174;SDS011;58876;51.994;4.472;2023-01-26T00:40:49;43.10;;;40.22;;
71174;SDS011;58876;51.994;4.472;2023-01-26T00:43:15;43.39;;;40.46;;
71174;SDS011;58876;51.994;4.472;2023-01-26T00:45:40;44.05;;;40.98;;
71174;SDS011;58876;51.994;4.472;2023-01-26T00:48:06;44.03;;;40.77;;
71174;SDS011;58876;51.994;4.472;2023-01-26T00:50:32;45.06;;;41.44;;
71174;SDS011;58876;51.994;4.472;2023-01-26T00:52:58;44.30;;;41.27;;
71174;SDS011;58876;51.994;4.472;2023-01-26T00:55:24;44.49;;;41.18;;
71174;SDS011;58876;51.994;4.472;2023-01-26T00:57:57;45.78;;;42.74;;
71174;SDS011;58876;51.994;4.472;2023-01-26T01:00:26;46.25;;;42.81;;
71174;SDS011;58876;51.994;4.472;2023-01-26T01:02:51;45.85;;;42.43;;
71174;SDS011;58876;51.994;4.472;2023-01-26T01:05:17;46.76;;;43.08;;
71174;SDS011;58876;51.994;4.472;2023-01-26T01:07:43;46.02;;;42.69;;
71174;SDS011;58876;51.994;4.472;2023-01-26T01:10:08;46.84;;;43.78;;
71174;SDS011;58876;51.994;4.472;2023-01-26T01:12:34;47.03;;;44.11;;
71174;SDS011;58876;51.994;4.472;2023-01-26T01:15:00;48.54;;;45.00;;
71174;SDS011;58876;51.994;4.472;2023-01-26T01:17:26;48.47;;;45.28;;
71174;SDS011;58876;51.994;4.472;2023-01-26T01:19:51;49.18;;;45.74;;
71174;SDS011;58876;51.994;4.472;2023-01-26T01:22:17;48.93;;;45.28;;
71174;SDS011;58876;51.994;4.472;2023-01-26T01:24:42;50.79;;;46.53;;
71174;SDS011;58876;51.994;4.472;2023-01-26T01:27:08;49.15;;;45.76;;
71174;SDS011;58876;51.994;4.472;2023-01-26T01:29:33;53.22;;;48.09;;
71174;SDS011;58876;51.994;4.472;2023-01-26T01:32:00;52.00;;;47.58;;
71174;SDS011;58876;51.994;4.472;2023-01-26T01:34:25;52.18;;;48.04;;
71174;SDS011;58876;51.994;4.472;2023-01-26T01:36:51;53.46;;;48.79;;
71174;SDS011;58876;51.994;4.472;2023-01-26T01:39:16;55.03;;;49.78;;
71174;SDS011;58876;51.994;4.472;2023-01-26T01:41:42;53.64;;;49.06;;
71174;SDS011;58876;51.994;4.472;2023-01-26T01:44:21;51.33;;;47.71;;
71174;SDS011;58876;51.994;4.472;2023-01-26T01:46:59;52.38;;;48.27;;
71174;SDS011;58876;51.994;4.472;2023-01-26T01:52:12;53.93;;;49.23;;
71174;SDS011;58876;51.994;4.472;2023-01-26T01:55:23;52.19;;;47.58;;
71174;SDS011;58876;51.994;4.472;2023-01-26T01:57:34;52.58;;;48.13;;
71174;SDS011;58876;51.994;4.472;2023-01-26T02:00:11;51.57;;;47.39;;
71174;SDS011;58876;51.994;4.472;2023-01-26T02:02:43;50.83;;;46.22;;
71174;SDS011;58876;51.994;4.472;2023-01-26T02:05:32;50.80;;;46.97;;
71174;SDS011;58876;51.994;4.472;2023-01-26T02:08:16;50.60;;;46.38;;
71174;SDS011;58876;51.994;4.472;2023-01-26T02:10:45;49.20;;;45.21;;
71174;SDS011;58876;51.994;4.472;2023-01-26T02:13:15;49.76;;;46.06;;
71174;SDS011;58876;51.994;4.472;2023-01-26T02:15:43;49.68;;;46.16;;
71174;SDS011;58876;51.994;4.472;2023-01-26T02:18:09;50.06;;;46.13;;
71174;SDS011;58876;51.994;4.472;2023-01-26T02:20:52;49.28;;;46.00;;
71174;SDS011;58876;51.994;4.472;2023-01-26T02:28:17;48.40;;;46.67;;
71174;SDS011;58876;51.994;4.472;2023-01-26T02:30:46;50.66;;;47.60;;
71174;SDS011;58876;51.994;4.472;2023-01-26T02:33:18;49.38;;;46.69;;
71174;SDS011;58876;51.994;4.472;2023-01-26T02:35:46;49.40;;;46.34;;
71174;SDS011;58876;51.994;4.472;2023-01-26T02:38:11;48.44;;;45.51;;
71174;SDS011;58876;51.994;4.472;2023-01-26T02:43:12;48.17;;;44.95;;
71174;SDS011;58876;51.994;4.472;2023-01-26T02:45:39;46.80;;;44.01;;
71174;SDS011;58876;51.994;4.472;2023-01-26T02:48:05;47.82;;;44.47;;
71174;SDS011;58876;51.994;4.472;2023-01-26T02:50:32;48.65;;;45.35;;
71174;SDS011;58876;51.994;4.472;2023-01-26T02:52:59;47.05;;;44.68;;
71174;SDS011;58876;51.994;4.472;2023-01-26T02:55:25;47.54;;;46.07;;
71174;SDS011;58876;51.994;4.472;2023-01-26T02:57:56;47.43;;;47.33;;
71174;SDS011;58876;51.994;4.472;2023-01-26T03:00:30;46.16;;;45.31;;
71174;SDS011;58876;51.994;4.472;2023-01-26T03:03:01;47.34;;;45.92;;
71174;SDS011;58876;51.994;4.472;2023-01-26T03:05:40;46.46;;;45.75;;
71174;SDS011;58876;51.994;4.472;2023-01-26T03:08:06;47.02;;;46.35;;
71174;SDS011;58876;51.994;4.472;2023-01-26T03:10:32;46.08;;;44.93;;
71174;SDS011;58876;51.994;4.472;2023-01-26T03:12:58;47.06;;;46.69;;
71174;SDS011;58876;51.994;4.472;2023-01-26T03:15:24;47.45;;;47.41;;
71174;SDS011;58876;51.994;4.472;2023-01-26T03:18:11;49.39;;;49.38;;
71174;SDS011;58876;51.994;4.472;2023-01-26T03:21:02;55.89;;;55.89;;
71174;SDS011;58876;51.994;4.472;2023-01-26T03:23:48;93.26;;;93.26;;
71174;SDS011;58876;51.994;4.472;2023-01-26T03:26:33;109.84;;;109.84;;
71174;SDS011;58876;51.994;4.472;2023-01-26T03:29:21;133.48;;;133.48;;
71174;SDS011;58876;51.994;4.472;2023-01-26T03:31:47;125.52;;;125.52;;
71174;SDS011;58876;51.994;4.472;2023-01-26T03:34:12;119.41;;;119.41;;
71174;SDS011;58876;51.994;4.472;2023-01-26T03:36:38;133.62;;;133.62;;
71174;SDS011;58876;51.994;4.472;2023-01-26T03:39:03;102.23;;;102.23;;
71174;SDS011;58876;51.994;4.472;2023-01-26T03:41:29;130.22;;;130.22;;
71174;SDS011;58876;51.994;4.472;2023-01-26T03:44:13;143.68;;;143.68;;
71174;SDS011;58876;51.994;4.472;2023-01-26T03:46:57;114.12;;;114.12;;
71174;SDS011;58876;51.994;4.472;2023-01-26T03:49:41;158.77;;;158.77;;
71174;SDS011;58876;51.994;4.472;2023-01-26T03:52:25;109.83;;;109.83;;
71174;SDS011;58876;51.994;4.472;2023-01-26T03:55:09;107.47;;;107.47;;
71174;SDS011;58876;51.994;4.472;2023-01-26T03:57:53;161.59;;;161.59;;
71174;SDS011;58876;51.994;4.472;2023-01-26T04:00:19;208.88;;;208.88;;
71174;SDS011;58876;51.994;4.472;2023-01-26T04:02:45;224.95;;;224.95;;
71174;SDS011;58876;51.994;4.472;2023-01-26T04:05:30;269.89;;;269.89;;
71174;SDS011;58876;51.994;4.472;2023-01-26T04:08:14;209.32;;;209.32;;
71174;SDS011;58876;51.994;4.472;2023-01-26T04:10:54;100.98;;;100.98;;
71174;SDS011;58876;51.994;4.472;2023-01-26T04:13:21;126.66;;;126.66;;
71174;SDS011;58876;51.994;4.472;2023-01-26T04:16:07;170.76;;;170.76;;
71174;SDS011;58876;51.994;4.472;2023-01-26T04:18:52;212.45;;;212.45;;
71174;SDS011;58876;51.994;4.472;2023-01-26T04:21:36;179.11;;;179.11;;
71174;SDS011;58876;51.994;4.472;2023-01-26T04:24:03;186.71;;;186.71;;
71174;SDS011;58876;51.994;4.472;2023-01-26T04:26:42;172.97;;;172.97;;
71174;SDS011;58876;51.994;4.472;2023-01-26T04:29:09;96.34;;;96.34;;
71174;SDS011;58876;51.994;4.472;2023-01-26T04:31:37;119.27;;;119.27;;
71174;SDS011;58876;51.994;4.472;2023-01-26T04:34:04;188.49;;;188.49;;
71174;SDS011;58876;51.994;4.472;2023-01-26T04:36:34;253.68;;;253.68;;
71174;SDS011;58876;51.994;4.472;2023-01-26T04:39:02;327.09;;;327.09;;
71174;SDS011;58876;51.994;4.472;2023-01-26T04:41:29;332.02;;;332.02;;
71174;SDS011;58876;51.994;4.472;2023-01-26T04:43:55;282.62;;;282.62;;
71174;SDS011;58876;51.994;4.472;2023-01-26T04:46:21;295.20;;;295.20;;
71174;SDS011;58876;51.994;4.472;2023-01-26T04:48:46;308.44;;;308.44;;
71174;SDS011;58876;51.994;4.472;2023-01-26T04:51:16;321.36;;;321.36;;
71174;SDS011;58876;51.994;4.472;2023-01-26T04:53:44;265.89;;;265.89;;
71174;SDS011;58876;51.994;4.472;2023-01-26T04:58:53;279.49;;;279.49;;
71174;SDS011;58876;51.994;4.472;2023-01-26T05:01:20;276.51;;;276.51;;
71174;SDS011;58876;51.994;4.472;2023-01-26T05:03:46;261.19;;;261.19;;
71174;SDS011;58876;51.994;4.472;2023-01-26T05:06:12;277.28;;;277.28;;
71174;SDS011;58876;51.994;4.472;2023-01-26T05:08:38;344.20;;;344.20;;
71174;SDS011;58876;51.994;4.472;2023-01-26T05:11:03;358.99;;;358.99;;
71174;SDS011;58876;51.994;4.472;2023-01-26T05:13:29;327.61;;;327.61;;
71174;SDS011;58876;51.994;4.472;2023-01-26T05:15:55;344.34;;;344.34;;
71174;SDS011;58876;51.994;4.472;2023-01-26T05:18:20;382.87;;;382.87;;
71174;SDS011;58876;51.994;4.472;2023-01-26T05:20:46;372.66;;;372.66;;
71174;SDS011;58876;51.994;4.472;2023-01-26T05:23:12;312.85;;;312.85;;
71174;SDS011;58876;51.994;4.472;2023-01-26T05:25:37;284.01;;;284.01;;
71174;SDS011;58876;51.994;4.472;2023-01-26T05:28:03;291.49;;;291.49;;
71174;SDS011;58876;51.994;4.472;2023-01-26T05:30:29;297.50;;;297.50;;
71174;SDS011;58876;51.994;4.472;2023-01-26T05:32:59;295.27;;;295.27;;
71174;SDS011;58876;51.994;4.472;2023-01-26T05:35:25;302.09;;;302.09;;
71174;SDS011;58876;51.994;4.472;2023-01-26T05:37:51;307.88;;;307.88;;
71174;SDS011;58876;51.994;4.472;2023-01-26T05:40:16;312.48;;;312.48;;
71174;SDS011;58876;51.994;4.472;2023-01-26T05:42:42;300.75;;;300.75;;
71174;SDS011;58876;51.994;4.472;2023-01-26T05:45:08;317.45;;;317.45;;
71174;SDS011;58876;51.994;4.472;2023-01-26T05:47:34;327.60;;;327.60;;
71174;SDS011;58876;51.994;4.472;2023-01-26T05:49:59;340.74;;;340.74;;
71174;SDS011;58876;51.994;4.472;2023-01-26T05:52:25;363.68;;;363.68;;
71174;SDS011;58876;51.994;4.472;2023-01-26T05:54:50;331.87;;;331.87;;
71174;SDS011;58876;51.994;4.472;2023-01-26T05:57:16;276.57;;;276.57;;
71174;SDS011;58876;51.994;4.472;2023-01-26T05:59:41;253.34;;;253.34;;
71174;SDS011;58876;51.994;4.472;2023-01-26T06:02:08;308.85;;;308.85;;
71174;SDS011;58876;51.994;4.472;2023-01-26T06:04:36;392.69;;;392.69;;
71174;SDS011;58876;51.994;4.472;2023-01-26T06:07:02;416.83;;;416.83;;
71174;SDS011;58876;51.994;4.472;2023-01-26T06:09:27;398.40;;;398.40;;
71174;SDS011;58876;51.994;4.472;2023-01-26T06:11:53;395.94;;;395.94;;
71174;SDS011;58876;51.994;4.472;2023-01-26T06:14:18;413.07;;;413.07;;
71174;SDS011;58876;51.994;4.472;2023-01-26T06:16:44;440.12;;;440.12;;
71174;SDS011;58876;51.994;4.472;2023-01-26T06:19:09;437.39;;;437.39;;
71174;SDS011;58876;51.994;4.472;2023-01-26T06:21:37;379.11;;;379.11;;
71174;SDS011;58876;51.994;4.472;2023-01-26T06:24:03;344.27;;;344.27;;
71174;SDS011;58876;51.994;4.472;2023-01-26T06:26:29;330.08;;;330.08;;
71174;SDS011;58876;51.994;4.472;2023-01-26T06:28:54;337.80;;;337.80;;
71174;SDS011;58876;51.994;4.472;2023-01-26T06:31:20;358.87;;;358.87;;
71174;SDS011;58876;51.994;4.472;2023-01-26T06:33:48;383.17;;;383.17;;
71174;SDS011;58876;51.994;4.472;2023-01-26T06:36:14;429.41;;;429.41;;
71174;SDS011;58876;51.994;4.472;2023-01-26T06:38:47;402.47;;;402.47;;
71174;SDS011;58876;51.994;4.472;2023-01-26T06:41:15;427.83;;;427.83;;
71174;SDS011;58876;51.994;4.472;2023-01-26T06:43:45;367.20;;;367.20;;
71174;SDS011;58876;51.994;4.472;2023-01-26T06:46:12;327.98;;;327.98;;
71174;SDS011;58876;51.994;4.472;2023-01-26T06:48:39;328.00;;;328.00;;
71174;SDS011;58876;51.994;4.472;2023-01-26T06:51:36;328.52;;;328.52;;
71174;SDS011;58876;51.994;4.472;2023-01-26T06:53:56;320.98;;;320.98;;
71174;SDS011;58876;51.994;4.472;2023-01-26T06:56:23;352.95;;;352.95;;
71174;SDS011;58876;51.994;4.472;2023-01-26T06:58:51;360.30;;;360.30;;
71174;SDS011;58876;51.994;4.472;2023-01-26T07:01:18;791.02;;;791.02;;
71174;SDS011;58876;51.994;4.472;2023-01-26T07:03:46;905.49;;;905.49;;
71174;SDS011;58876;51.994;4.472;2023-01-26T07:06:15;1752.72;;;1752.72;;
71174;SDS011;58876;51.994;4.472;2023-01-26T07:08:41;3344.37;;;3344.37;;
71174;SDS011;58876;51.994;4.472;2023-01-26T07:11:07;4109.62;;;4109.62;;
71174;SDS011;58876;51.994;4.472;2023-01-26T07:13:34;3450.15;;;3450.15;;
71174;SDS011;58876;51.994;4.472;2023-01-26T07:16:02;3788.70;;;3788.70;;
71174;SDS011;58876;51.994;4.472;2023-01-26T07:18:36;4153.46;;;4153.46;;
71174;SDS011;58876;51.994;4.472;2023-01-26T07:21:05;3144.73;;;3144.73;;
71174;SDS011;58876;51.994;4.472;2023-01-26T07:23:34;730.27;;;730.16;;
71174;SDS011;58876;51.994;4.472;2023-01-26T07:25:59;893.20;;;893.20;;
71174;SDS011;58876;51.994;4.472;2023-01-26T07:28:25;885.85;;;885.85;;
71174;SDS011;58876;51.994;4.472;2023-01-26T07:30:51;527.01;;;527.01;;
71174;SDS011;58876;51.994;4.472;2023-01-26T07:33:21;828.84;;;828.84;;
71174;SDS011;58876;51.994;4.472;2023-01-26T07:35:46;1517.83;;;1517.83;;
71174;SDS011;58876;51.994;4.472;2023-01-26T07:38:12;885.62;;;885.62;;
71174;SDS011;58876;51.994;4.472;2023-01-26T07:40:38;1292.05;;;1292.05;;
71174;SDS011;58876;51.994;4.472;2023-01-26T07:43:04;1389.90;;;1389.90;;
71174;SDS011;58876;51.994;4.472;2023-01-26T07:45:29;1507.30;;;1507.30;;
71174;SDS011;58876;51.994;4.472;2023-01-26T07:47:55;1532.01;;;1532.01;;
71174;SDS011;58876;51.994;4.472;2023-01-26T07:50:21;734.77;;;734.77;;
71174;SDS011;58876;51.994;4.472;2023-01-26T07:52:49;755.92;;;755.92;;
71174;SDS011;58876;51.994;4.472;2023-01-26T07:55:17;1348.66;;;1348.66;;
71174;SDS011;58876;51.994;4.472;2023-01-26T07:57:47;1744.85;;;1744.85;;
71174;SDS011;58876;51.994;4.472;2023-01-26T08:00:13;1723.70;;;1723.70;;
71174;SDS011;58876;51.994;4.472;2023-01-26T08:02:39;674.12;;;674.12;;
71174;SDS011;58876;51.994;4.472;2023-01-26T08:05:05;396.58;;;396.58;;
71174;SDS011;58876;51.994;4.472;2023-01-26T08:07:31;562.84;;;562.84;;
71174;SDS011;58876;51.994;4.472;2023-01-26T08:09:56;1043.43;;;1043.43;;
71174;SDS011;58876;51.994;4.472;2023-01-26T08:12:23;805.65;;;805.65;;
71174;SDS011;58876;51.994;4.472;2023-01-26T08:14:49;410.44;;;410.44;;
71174;SDS011;58876;51.994;4.472;2023-01-26T08:17:17;370.78;;;370.78;;
71174;SDS011;58876;51.994;4.472;2023-01-26T08:19:43;282.90;;;282.90;;
71174;SDS011;58876;51.994;4.472;2023-01-26T08:22:11;661.78;;;661.78;;
71174;SDS011;58876;51.994;4.472;2023-01-26T08:24:37;1734.78;;;1734.78;;
71174;SDS011;58876;51.994;4.472;2023-01-26T08:27:03;3980.50;;;3980.50;;
71174;SDS011;58876;51.994;4.472;2023-01-26T08:29:28;1494.43;;;1494.43;;
71174;SDS011;58876;51.994;4.472;2023-01-26T08:31:54;448.55;;;448.55;;
71174;SDS011;58876;51.994;4.472;2023-01-26T08:34:19;390.46;;;390.46;;
71174;SDS011;58876;51.994;4.472;2023-01-26T08:36:46;644.19;;;644.19;;
71174;SDS011;58876;51.994;4.472;2023-01-26T08:39:12;1342.91;;;1342.91;;
71174;SDS011;58876;51.994;4.472;2023-01-26T08:41:38;1763.23;;;1763.23;;
71174;SDS011;58876;51.994;4.472;2023-01-26T08:44:04;1864.37;;;1864.37;;
71174;SDS011;58876;51.994;4.472;2023-01-26T08:46:30;2413.55;;;2413.55;;
71174;SDS011;58876;51.994;4.472;2023-01-26T08:48:55;1285.83;;;1285.83;;
71174;SDS011;58876;51.994;4.472;2023-01-26T08:51:21;656.43;;;656.43;;
71174;SDS011;58876;51.994;4.472;2023-01-26T08:53:46;128.67;;;128.67;;
71174;SDS011;58876;51.994;4.472;2023-01-26T08:56:11;81.32;;;81.32;;
71174;SDS011;58876;51.994;4.472;2023-01-26T08:58:38;71.72;;;71.72;;
71174;SDS011;58876;51.994;4.472;2023-01-26T09:01:07;74.32;;;74.32;;
71174;SDS011;58876;51.994;4.472;2023-01-26T09:03:36;65.28;;;65.28;;
71174;SDS011;58876;51.994;4.472;2023-01-26T09:06:02;62.71;;;62.71;;
71174;SDS011;58876;51.994;4.472;2023-01-26T09:08:29;73.52;;;73.52;;
71174;SDS011;58876;51.994;4.472;2023-01-26T09:10:55;51.36;;;51.36;;
71174;SDS011;58876;51.994;4.472;2023-01-26T09:13:21;33.61;;;33.61;;
71174;SDS011;58876;51.994;4.472;2023-01-26T09:15:47;19.58;;;19.58;;
71174;SDS011;58876;51.994;4.472;2023-01-26T09:18:12;24.13;;;24.13;;
71174;SDS011;58876;51.994;4.472;2023-01-26T09:20:38;25.94;;;25.94;;
71174;SDS011;58876;51.994;4.472;2023-01-26T09:23:03;38.83;;;38.83;;
71174;SDS011;58876;51.994;4.472;2023-01-26T09:25:29;28.00;;;28.00;;
71174;SDS011;58876;51.994;4.472;2023-01-26T09:27:54;20.28;;;20.28;;
71174;SDS011;58876;51.994;4.472;2023-01-26T09:30:20;24.54;;;24.54;;
71174;SDS011;58876;51.994;4.472;2023-01-26T09:32:46;21.73;;;21.73;;
71174;SDS011;58876;51.994;4.472;2023-01-26T09:35:11;22.75;;;22.75;;
71174;SDS011;58876;51.994;4.472;2023-01-26T09:37:37;24.23;;;24.23;;
71174;SDS011;58876;51.994;4.472;2023-01-26T09:40:03;20.11;;;20.11;;
71174;SDS011;58876;51.994;4.472;2023-01-26T09:42:32;12.94;;;12.94;;
71174;SDS011;58876;51.994;4.472;2023-01-26T09:50:34;8.53;;;6.29;;
71174;SDS011;58876;51.994;4.472;2023-01-26T09:53:42;11.26;;;9.58;;
71174;SDS011;58876;51.994;4.472;2023-01-26T09:56:14;6.37;;;5.46;;
71174;SDS011;58876;51.994;4.472;2023-01-26T09:58:44;10.58;;;7.93;;
71174;SDS011;58876;51.994;4.472;2023-01-26T10:01:20;7.82;;;5.70;;
71174;SDS011;58876;51.994;4.472;2023-01-26T10:04:28;9.10;;;6.22;;
71174;SDS011;58876;51.994;4.472;2023-01-26T10:06:56;11.13;;;7.22;;
71174;SDS011;58876;51.994;4.472;2023-01-26T10:09:27;11.45;;;7.53;;
71174;SDS011;58876;51.994;4.472;2023-01-26T10:12:22;10.68;;;7.10;;
71174;SDS011;58876;51.994;4.472;2023-01-26T10:14:56;10.95;;;7.23;;
71174;SDS011;58876;51.994;4.472;2023-01-26T10:17:29;9.92;;;6.36;;
71174;SDS011;58876;51.994;4.472;2023-01-26T10:22:45;10.89;;;6.86;;
71174;SDS011;58876;51.994;4.472;2023-01-26T10:25:15;11.82;;;7.37;;
71174;SDS011;58876;51.994;4.472;2023-01-26T10:27:42;10.34;;;6.42;;
71174;SDS011;58876;51.994;4.472;2023-01-26T10:30:13;11.08;;;6.81;;
71174;SDS011;58876;51.994;4.472;2023-01-26T10:32:43;10.38;;;6.46;;
71174;SDS011;58876;51.994;4.472;2023-01-26T10:35:14;11.58;;;7.20;;
71174;SDS011;58876;51.994;4.472;2023-01-26T10:37:42;10.61;;;6.85;;
71174;SDS011;58876;51.994;4.472;2023-01-26T10:40:08;10.32;;;6.47;;
71174;SDS011;58876;51.994;4.472;2023-01-26T10:42:35;10.40;;;6.49;;
71174;SDS011;58876;51.994;4.472;2023-01-26T10:45:06;11.26;;;6.95;;
71174;SDS011;58876;51.994;4.472;2023-01-26T10:50:48;9.62;;;6.20;;
71174;SDS011;58876;51.994;4.472;2023-01-26T10:53:16;9.22;;;5.94;;
71174;SDS011;58876;51.994;4.472;2023-01-26T10:56:12;9.52;;;6.01;;
71174;SDS011;58876;51.994;4.472;2023-01-26T10:58:51;9.29;;;5.85;;
71174;SDS011;58876;51.994;4.472;2023-01-26T11:01:21;9.24;;;5.92;;
71174;SDS011;58876;51.994;4.472;2023-01-26T11:03:58;14.52;;;10.25;;
71174;SDS011;58876;51.994;4.472;2023-01-26T11:06:29;10.83;;;10.81;;
71174;SDS011;58876;51.994;4.472;2023-01-26T11:09:16;4.52;;;3.83;;
71174;SDS011;58876;51.994;4.472;2023-01-26T11:11:55;6.80;;;4.84;;
71174;SDS011;58876;51.994;4.472;2023-01-26T11:14:21;7.21;;;4.86;;
71174;SDS011;58876;51.994;4.472;2023-01-26T11:17:03;8.06;;;5.22;;
71174;SDS011;58876;51.994;4.472;2023-01-26T11:25:14;8.11;;;5.09;;
71174;SDS011;58876;51.994;4.472;2023-01-26T11:36:18;8.85;;;5.45;;
71174;SDS011;58876;51.994;4.472;2023-01-26T11:50:23;9.70;;;5.88;;
71174;SDS011;58876;51.994;4.472;2023-01-26T11:53:18;7.42;;;4.80;;
71174;SDS011;58876;51.994;4.472;2023-01-26T11:58:57;6.91;;;4.36;;
71174;SDS011;58876;51.994;4.472;2023-01-26T12:01:28;8.04;;;5.16;;
71174;SDS011;58876;51.994;4.472;2023-01-26T12:03:59;6.76;;;4.32;;
71174;SDS011;58876;51.994;4.472;2023-01-26T12:11:40;8.91;;;5.39;;
71174;SDS011;58876;51.994;4.472;2023-01-26T12:21:50;6.13;;;3.88;;
71174;SDS011;58876;51.994;4.472;2023-01-26T12:24:33;6.74;;;4.24;;
71174;SDS011;58876;51.994;4.472;2023-01-26T12:27:07;7.49;;;4.70;;
71174;SDS011;58876;51.994;4.472;2023-01-26T12:30:03;6.82;;;4.29;;
71174;SDS011;58876;51.994;4.472;2023-01-26T12:32:31;7.88;;;5.00;;
71174;SDS011;58876;51.994;4.472;2023-01-26T12:34:57;8.45;;;5.30;;
71174;SDS011;58876;51.994;4.472;2023-01-26T12:45:48;9.85;;;5.99;;
71174;SDS011;58876;51.994;4.472;2023-01-26T12:48:26;9.00;;;5.63;;
71174;SDS011;58876;51.994;4.472;2023-01-26T12:51:03;8.76;;;5.61;;
71174;SDS011;58876;51.994;4.472;2023-01-26T12:53:58;8.35;;;5.27;;
71174;SDS011;58876;51.994;4.472;2023-01-26T12:56:53;8.56;;;5.40;;
71174;SDS011;58876;51.994;4.472;2023-01-26T12:59:32;10.10;;;6.36;;
71174;SDS011;58876;51.994;4.472;2023-01-26T13:04:48;9.24;;;5.70;;
71174;SDS011;58876;51.994;4.472;2023-01-26T13:12:50;9.36;;;5.78;;
71174;SDS011;58876;51.994;4.472;2023-01-26T13:15:27;9.75;;;5.99;;
71174;SDS011;58876;51.994;4.472;2023-01-26T13:17:56;8.71;;;5.36;;
71174;SDS011;58876;51.994;4.472;2023-01-26T13:22:53;11.15;;;6.88;;
71174;SDS011;58876;51.994;4.472;2023-01-26T13:25:30;9.09;;;5.55;;
71174;SDS011;58876;51.994;4.472;2023-01-26T13:27:58;9.58;;;5.94;;
71174;SDS011;58876;51.994;4.472;2023-01-26T13:30:28;8.26;;;5.17;;
71174;SDS011;58876;51.994;4.472;2023-01-26T13:33:23;7.59;;;4.74;;
71174;SDS011;58876;51.994;4.472;2023-01-26T13:35:50;8.30;;;5.16;;
71174;SDS011;58876;51.994;4.472;2023-01-26T13:38:26;6.82;;;4.26;;
71174;SDS011;58876;51.994;4.472;2023-01-26T13:40:59;4.32;;;2.71;;
71174;SDS011;58876;51.994;4.472;2023-01-26T13:43:39;5.11;;;3.21;;
71174;SDS011;58876;51.994;4.472;2023-01-26T13:47:14;5.21;;;3.32;;
71174;SDS011;58876;51.994;4.472;2023-01-26T13:49:23;6.03;;;3.84;;
71174;SDS011;58876;51.994;4.472;2023-01-26T13:52:02;15.73;;;10.53;;
71174;SDS011;58876;51.994;4.472;2023-01-26T13:54:28;3.98;;;2.84;;
71174;SDS011;58876;51.994;4.472;2023-01-26T13:57:01;4.85;;;3.31;;
71174;SDS011;58876;51.994;4.472;2023-01-26T13:59:29;5.11;;;3.41;;
71174;SDS011;58876;51.994;4.472;2023-01-26T14:01:57;6.30;;;4.19;;
71174;SDS011;58876;51.994;4.472;2023-01-26T14:04:27;6.71;;;4.43;;
71174;SDS011;58876;51.994;4.472;2023-01-26T14:06:58;7.73;;;5.03;;
71174;SDS011;58876;51.994;4.472;2023-01-26T14:09:49;8.59;;;5.50;;
71174;SDS011;58876;51.994;4.472;2023-01-26T14:12:20;8.10;;;5.09;;
71174;SDS011;58876;51.994;4.472;2023-01-26T14:14:50;8.73;;;5.46;;
71174;SDS011;58876;51.994;4.472;2023-01-26T14:17:30;7.59;;;4.71;;
71174;SDS011;58876;51.994;4.472;2023-01-26T14:19:58;7.39;;;4.56;;
71174;SDS011;58876;51.994;4.472;2023-01-26T14:22:27;7.91;;;4.79;;
71174;SDS011;58876;51.994;4.472;2023-01-26T14:24:53;9.93;;;6.70;;
71174;SDS011;58876;51.994;4.472;2023-01-26T14:27:38;4.70;;;3.38;;
71174;SDS011;58876;51.994;4.472;2023-01-26T14:32:53;6.72;;;4.33;;
71174;SDS011;58876;51.994;4.472;2023-01-26T14:35:33;7.54;;;4.84;;
71174;SDS011;58876;51.994;4.472;2023-01-26T14:40:45;7.45;;;4.71;;
71174;SDS011;58876;51.994;4.472;2023-01-26T14:43:14;8.17;;;5.16;;
71174;SDS011;58876;51.994;4.472;2023-01-26T14:48:12;7.35;;;4.69;;
71174;SDS011;58876;51.994;4.472;2023-01-26T14:50:43;7.96;;;5.08;;
71174;SDS011;58876;51.994;4.472;2023-01-26T14:53:16;7.06;;;4.53;;
71174;SDS011;58876;51.994;4.472;2023-01-26T14:55:44;6.88;;;4.40;;
71174;SDS011;58876;51.994;4.472;2023-01-26T14:58:13;7.55;;;4.79;;
71174;SDS011;58876;51.994;4.472;2023-01-26T15:00:47;7.06;;;4.53;;
71174;SDS011;58876;51.994;4.472;2023-01-26T15:03:19;6.41;;;4.15;;
71174;SDS011;58876;51.994;4.472;2023-01-26T15:05:47;7.02;;;4.60;;
71174;SDS011;58876;51.994;4.472;2023-01-26T15:10:59;7.44;;;4.70;;
71174;SDS011;58876;51.994;4.472;2023-01-26T15:13:46;8.42;;;5.21;;
71174;SDS011;58876;51.994;4.472;2023-01-26T15:16:19;7.99;;;5.00;;
71174;SDS011;58876;51.994;4.472;2023-01-26T15:18:57;7.73;;;4.83;;
71174;SDS011;58876;51.994;4.472;2023-01-26T15:21:23;7.38;;;4.65;;
71174;SDS011;58876;51.994;4.472;2023-01-26T15:24:01;6.18;;;3.86;;
71174;SDS011;58876;51.994;4.472;2023-01-26T15:26:28;6.85;;;4.29;;
71174;SDS011;58876;51.994;4.472;2023-01-26T15:29:00;6.55;;;4.11;;
71174;SDS011;58876;51.994;4.472;2023-01-26T15:34:02;6.00;;;3.86;;
71174;SDS011;58876;51.994;4.472;2023-01-26T15:36:30;6.39;;;4.10;;
71174;SDS011;58876;51.994;4.472;2023-01-26T15:39:14;5.92;;;3.85;;
71174;SDS011;58876;51.994;4.472;2023-01-26T15:41:42;6.12;;;4.25;;
71174;SDS011;58876;51.994;4.472;2023-01-26T15:44:14;6.18;;;4.65;;
71174;SDS011;58876;51.994;4.472;2023-01-26T15:46:41;4.89;;;3.73;;
71174;SDS011;58876;51.994;4.472;2023-01-26T15:49:06;5.15;;;3.97;;
71174;SDS011;58876;51.994;4.472;2023-01-26T15:51:32;5.15;;;3.97;;
71174;SDS011;58876;51.994;4.472;2023-01-26T15:53:57;3.30;;;2.48;;
71174;SDS011;58876;51.994;4.472;2023-01-26T15:56:23;5.03;;;3.58;;
71174;SDS011;58876;51.994;4.472;2023-01-26T15:58:48;4.81;;;3.34;;
71174;SDS011;58876;51.994;4.472;2023-01-26T16:01:15;4.94;;;3.38;;
71174;SDS011;58876;51.994;4.472;2023-01-26T16:03:47;5.99;;;4.05;;
71174;SDS011;58876;51.994;4.472;2023-01-26T16:06:26;5.50;;;3.90;;
71174;SDS011;58876;51.994;4.472;2023-01-26T16:08:54;4.38;;;3.16;;
71174;SDS011;58876;51.994;4.472;2023-01-26T16:11:21;5.39;;;4.03;;
71174;SDS011;58876;51.994;4.472;2023-01-26T16:13:54;5.74;;;4.49;;
71174;SDS011;58876;51.994;4.472;2023-01-26T16:16:21;3.99;;;3.20;;